createdAt,value
2023-05-29T00:01:32.858Z,4.80
2023-05-29T00:03:59.624Z,4.20
2023-05-29T00:06:26.347Z,4.77
2023-05-29T00:08:52.814Z,4.20
2023-05-29T00:11:19.397Z,4.30
2023-05-29T00:13:46.133Z,4.03
2023-05-29T00:16:13.832Z,4.43
2023-05-29T00:18:46.210Z,4.20
2023-05-29T00:21:14.509Z,4.10
2023-05-29T00:23:41.081Z,3.97
2023-05-29T00:26:07.815Z,4.00
2023-05-29T00:28:34.970Z,4.63
2023-05-29T00:31:01.651Z,3.83
2023-05-29T00:33:28.201Z,3.43
2023-05-29T00:35:54.967Z,4.47
2023-05-29T00:38:21.887Z,3.50
2023-05-29T00:40:48.372Z,4.50
2023-05-29T00:43:14.840Z,4.77
2023-05-29T00:45:41.321Z,4.30
2023-05-29T00:48:08.310Z,4.20
2023-05-29T00:50:35.074Z,4.03
2023-05-29T00:53:03.441Z,4.80
2023-05-29T00:55:30.645Z,4.00
2023-05-29T00:57:57.398Z,4.13
2023-05-29T01:00:25.370Z,4.63
2023-05-29T01:02:53.677Z,5.20
2023-05-29T01:05:20.471Z,3.43
2023-05-29T01:07:46.935Z,4.37
2023-05-29T01:10:13.648Z,4.97
2023-05-29T01:12:49.494Z,5.13
2023-05-29T01:15:22.303Z,3.90
2023-05-29T01:18:09.648Z,5.70
2023-05-29T01:20:42.995Z,4.13
2023-05-29T01:23:21.500Z,5.93
2023-05-29T01:25:57.151Z,5.80
2023-05-29T01:28:25.962Z,6.20
2023-05-29T01:30:53.739Z,5.77
2023-05-29T01:33:20.431Z,6.13
2023-05-29T01:35:46.957Z,6.70
2023-05-29T01:38:13.790Z,6.43
2023-05-29T01:40:40.601Z,6.73
2023-05-29T01:43:08.177Z,7.20
2023-05-29T01:45:35.624Z,6.27
2023-05-29T01:48:02.732Z,5.93
2023-05-29T01:50:29.900Z,7.80
2023-05-29T01:52:57.104Z,6.40
2023-05-29T01:55:23.968Z,7.67
2023-05-29T01:57:50.794Z,6.50
2023-05-29T02:00:18.563Z,7.97
2023-05-29T02:02:47.276Z,6.63
2023-05-29T02:05:15.044Z,5.80
2023-05-29T02:07:41.851Z,7.50
2023-05-29T02:10:08.600Z,7.80
2023-05-29T02:12:35.610Z,7.87
2023-05-29T02:15:02.148Z,6.77
2023-05-29T02:17:31.951Z,8.37
2023-05-29T02:19:58.851Z,7.20
2023-05-29T02:22:25.450Z,7.07
2023-05-29T02:24:52.375Z,8.00
2023-05-29T02:27:19.105Z,8.80
2023-05-29T02:29:46.002Z,8.07
2023-05-29T02:32:12.852Z,7.67
2023-05-29T02:34:39.599Z,8.00
2023-05-29T02:37:06.644Z,8.60
2023-05-29T02:39:33.335Z,8.60
2023-05-29T02:41:59.995Z,9.00
2023-05-29T02:44:26.905Z,8.73
2023-05-29T02:46:53.721Z,8.97
2023-05-29T02:49:20.551Z,8.27
2023-05-29T02:51:47.049Z,7.47
2023-05-29T02:54:13.624Z,8.07
2023-05-29T02:56:41.148Z,8.60
2023-05-29T02:59:08.150Z,8.30
2023-05-29T03:01:35.422Z,7.53
2023-05-29T03:04:02.592Z,7.07
2023-05-29T03:06:30.171Z,8.70
2023-05-29T03:08:56.871Z,7.33
2023-05-29T03:11:25.709Z,7.57
2023-05-29T03:13:52.683Z,8.10
2023-05-29T03:16:19.247Z,6.77
2023-05-29T03:18:46.149Z,8.10
2023-05-29T03:21:13.911Z,7.90
2023-05-29T03:23:40.741Z,8.13
2023-05-29T03:26:07.335Z,8.33
2023-05-29T03:28:35.441Z,7.60
2023-05-29T03:31:05.122Z,7.97
2023-05-29T03:33:31.786Z,8.27
2023-05-29T03:36:24.412Z,6.70
2023-05-29T03:38:51.063Z,7.87
2023-05-29T03:41:19.359Z,6.40
2023-05-29T03:43:45.856Z,6.53
2023-05-29T03:46:13.629Z,5.83
2023-05-29T03:48:40.651Z,7.63
2023-05-29T03:51:09.736Z,6.40
2023-05-29T03:53:37.397Z,6.00
2023-05-29T03:56:04.141Z,5.30
2023-05-29T03:58:30.924Z,5.60
2023-05-29T04:00:59.598Z,4.87
2023-05-29T04:03:30.628Z,4.50
2023-05-29T04:05:58.940Z,4.20
2023-05-29T04:08:25.458Z,5.13
2023-05-29T04:10:54.766Z,4.83
2023-05-29T04:13:22.710Z,4.50
2023-05-29T04:15:49.419Z,4.77
2023-05-29T04:18:17.800Z,4.17
2023-05-29T04:20:46.946Z,5.47
2023-05-29T04:23:14.470Z,5.40
2023-05-29T04:25:40.964Z,4.43
2023-05-29T04:28:07.594Z,6.37
2023-05-29T04:30:35.066Z,5.27
2023-05-29T04:33:03.027Z,4.40
2023-05-29T04:35:29.889Z,4.80
2023-05-29T04:37:59.481Z,5.37
2023-05-29T04:40:30.115Z,5.07
2023-05-29T04:43:01.425Z,4.83
2023-05-29T04:45:30.938Z,4.17
2023-05-29T04:47:57.861Z,3.67
2023-05-29T04:50:25.016Z,4.57
2023-05-29T04:52:54.014Z,4.20
2023-05-29T04:55:21.805Z,4.37
2023-05-29T04:57:48.327Z,5.97
2023-05-29T05:00:15.631Z,4.07
2023-05-29T05:02:44.948Z,4.43
2023-05-29T05:05:13.779Z,5.40
2023-05-29T05:07:40.377Z,4.57
2023-05-29T05:10:08.380Z,5.07
2023-05-29T05:12:35.862Z,5.37
2023-05-29T05:15:02.930Z,4.30
2023-05-29T05:17:30.937Z,4.93
2023-05-29T05:19:57.636Z,4.87
2023-05-29T05:22:24.244Z,4.83
2023-05-29T05:24:53.100Z,4.70
2023-05-29T05:27:19.581Z,5.07
2023-05-29T05:29:46.116Z,4.00
2023-05-29T05:32:12.913Z,5.30
2023-05-29T05:34:40.039Z,3.90
2023-05-29T05:37:07.334Z,4.80
2023-05-29T05:39:34.444Z,6.57
2023-05-29T05:42:01.078Z,4.97
2023-05-29T05:44:53.933Z,5.47
2023-05-29T05:47:20.468Z,4.07
2023-05-29T05:49:47.011Z,4.37
2023-05-29T05:52:13.700Z,3.80
2023-05-29T05:54:40.307Z,4.13
2023-05-29T05:57:08.271Z,2.70
2023-05-29T05:59:36.924Z,5.10
2023-05-29T06:02:07.128Z,4.20
2023-05-29T06:04:36.922Z,4.20
2023-05-29T06:07:03.851Z,4.10
2023-05-29T06:09:30.364Z,3.50
2023-05-29T06:11:56.885Z,3.80
2023-05-29T06:14:24.505Z,3.80
2023-05-29T06:16:51.720Z,4.50
2023-05-29T06:19:18.452Z,5.27
2023-05-29T06:21:54.217Z,3.93
2023-05-29T06:24:21.330Z,3.47
2023-05-29T06:26:48.068Z,4.60
2023-05-29T06:29:16.378Z,4.50
2023-05-29T06:31:43.207Z,3.40
2023-05-29T06:34:09.753Z,4.87
2023-05-29T06:36:37.704Z,3.07
2023-05-29T06:39:04.240Z,3.37
2023-05-29T06:41:31.982Z,3.30
2023-05-29T06:43:58.963Z,3.20
2023-05-29T06:46:26.000Z,4.33
2023-05-29T06:48:52.695Z,3.70
2023-05-29T06:51:20.931Z,3.23
2023-05-29T06:53:47.544Z,3.20
2023-05-29T06:56:15.124Z,4.40
2023-05-29T06:58:43.284Z,4.40
2023-05-29T07:01:09.878Z,3.30
2023-05-29T07:03:58.897Z,4.40
2023-05-29T07:06:29.176Z,4.13
2023-05-29T07:08:55.927Z,4.37
2023-05-29T07:11:23.718Z,3.83
2023-05-29T07:13:50.364Z,2.60
2023-05-29T07:18:51.858Z,3.93
2023-05-29T07:21:18.548Z,3.63
2023-05-29T07:23:45.216Z,3.63
2023-05-29T07:26:11.839Z,5.10
2023-05-29T07:28:39.623Z,3.53
2023-05-29T07:31:06.483Z,3.90
2023-05-29T07:33:33.086Z,3.50
2023-05-29T07:36:00.788Z,3.27
2023-05-29T07:38:27.602Z,2.97
2023-05-29T07:40:54.556Z,3.83
2023-05-29T07:43:30.025Z,4.50
2023-05-29T07:46:00.420Z,3.93
2023-05-29T07:48:27.352Z,3.47
2023-05-29T07:50:54.300Z,5.00
2023-05-29T07:53:21.406Z,4.03
2023-05-29T07:55:49.049Z,4.33
2023-05-29T07:58:17.281Z,4.83
2023-05-29T08:00:45.774Z,4.23
2023-05-29T08:03:13.790Z,4.83
2023-05-29T08:06:15.881Z,5.00
2023-05-29T08:08:44.020Z,5.30
2023-05-29T08:11:10.817Z,4.87
2023-05-29T08:13:38.204Z,5.00
2023-05-29T08:16:04.994Z,4.10
2023-05-29T08:18:33.561Z,4.67
2023-05-29T08:21:00.709Z,5.00
2023-05-29T08:23:29.026Z,4.60
2023-05-29T08:25:55.713Z,5.20
2023-05-29T08:28:22.294Z,4.20
2023-05-29T08:30:48.920Z,4.00
2023-05-29T08:33:15.857Z,5.00
2023-05-29T08:35:42.546Z,5.57
2023-05-29T08:38:09.357Z,5.60
2023-05-29T08:40:36.175Z,5.00
2023-05-29T08:43:26.287Z,6.00
2023-05-29T08:45:57.512Z,7.00
2023-05-29T08:48:27.828Z,5.70
2023-05-29T08:50:56.143Z,5.33
2023-05-29T08:53:23.482Z,4.83
2023-05-29T08:55:53.702Z,4.60
2023-05-29T08:58:24.593Z,3.83
2023-05-29T09:00:52.352Z,4.47
2023-05-29T09:03:21.350Z,4.17
2023-05-29T09:05:50.146Z,4.10
2023-05-29T09:08:17.637Z,4.33
2023-05-29T09:10:44.754Z,4.10
2023-05-29T09:13:12.410Z,4.30
2023-05-29T09:15:44.925Z,4.83
2023-05-29T09:18:11.863Z,4.73
2023-05-29T09:20:38.696Z,5.30
2023-05-29T09:23:07.678Z,4.17
2023-05-29T09:25:40.252Z,4.90
2023-05-29T09:28:08.602Z,4.80
2023-05-29T09:30:42.831Z,4.40
2023-05-29T09:33:12.659Z,4.07
2023-05-29T09:35:40.829Z,5.00
2023-05-29T09:38:08.471Z,3.70
2023-05-29T09:41:01.969Z,3.40
2023-05-29T09:43:28.661Z,4.53
2023-05-29T09:45:55.307Z,3.57
2023-05-29T09:48:25.195Z,4.90
2023-05-29T09:50:51.964Z,4.73
2023-05-29T09:53:21.719Z,4.70
2023-05-29T09:55:48.811Z,4.20
2023-05-29T09:58:16.682Z,5.47
2023-05-29T10:00:44.094Z,4.90
2023-05-29T10:03:11.531Z,4.13
2023-05-29T10:05:38.809Z,5.00
2023-05-29T10:08:06.440Z,5.37
2023-05-29T10:10:33.900Z,4.30
2023-05-29T10:13:04.016Z,4.70
2023-05-29T10:15:32.203Z,5.10
2023-05-29T10:18:01.987Z,4.70
2023-05-29T10:20:29.362Z,4.70
2023-05-29T10:22:58.294Z,4.90
2023-05-29T10:25:25.549Z,5.60
2023-05-29T10:27:52.223Z,4.07
2023-05-29T10:30:41.626Z,4.60
2023-05-29T10:33:27.948Z,4.73
2023-05-29T10:36:05.656Z,5.10
2023-05-29T10:38:32.320Z,4.10
2023-05-29T10:41:18.895Z,3.87
2023-05-29T10:43:45.861Z,3.83
2023-05-29T10:46:12.500Z,4.33
2023-05-29T10:48:42.949Z,4.00
2023-05-29T10:51:24.636Z,3.97
2023-05-29T10:53:51.319Z,4.40
2023-05-29T10:56:22.068Z,4.30
2023-05-29T10:58:52.155Z,5.20
2023-05-29T11:01:21.989Z,4.50
2023-05-29T11:03:49.832Z,4.20
2023-05-29T11:06:20.877Z,4.63
2023-05-29T11:08:54.779Z,5.13
2023-05-29T11:11:32.914Z,4.30
2023-05-29T11:14:02.521Z,4.00
2023-05-29T11:16:33.395Z,4.63
2023-05-29T11:19:12.903Z,6.10
2023-05-29T11:21:58.638Z,5.80
2023-05-29T11:24:26.441Z,4.57
2023-05-29T11:26:54.441Z,4.10
2023-05-29T11:29:25.245Z,4.60
2023-05-29T11:32:00.133Z,4.40
2023-05-29T11:34:29.477Z,4.13
2023-05-29T11:37:03.050Z,3.40
2023-05-29T11:39:30.341Z,4.00
2023-05-29T11:41:57.005Z,5.10
2023-05-29T11:44:29.778Z,4.83
2023-05-29T11:47:03.910Z,4.20
2023-05-29T11:49:35.134Z,3.93
2023-05-29T11:52:15.456Z,4.33
2023-05-29T11:54:48.839Z,4.50
2023-05-29T11:57:20.463Z,4.30
2023-05-29T11:59:47.442Z,4.77
2023-05-29T12:02:15.127Z,4.60
2023-05-29T12:04:42.030Z,3.43
2023-05-29T12:07:19.136Z,4.47
2023-05-29T12:09:45.733Z,4.70
2023-05-29T12:12:12.584Z,4.37
2023-05-29T12:14:39.107Z,3.80
2023-05-29T12:17:06.062Z,4.43
2023-05-29T12:19:32.699Z,4.27
2023-05-29T12:21:59.311Z,3.70
2023-05-29T12:24:32.253Z,4.33
2023-05-29T12:27:08.499Z,4.30
2023-05-29T12:29:35.124Z,3.73
2023-05-29T12:32:01.837Z,3.60
2023-05-29T12:34:35.363Z,4.10
2023-05-29T12:37:12.908Z,4.50
2023-05-29T12:39:41.438Z,4.13
2023-05-29T12:42:08.981Z,3.97
2023-05-29T12:44:38.962Z,4.90
2023-05-29T12:47:06.469Z,4.53
2023-05-29T12:49:36.792Z,4.63
2023-05-29T12:52:11.341Z,3.20
2023-05-29T12:54:37.973Z,3.47
2023-05-29T12:57:04.580Z,4.30
2023-05-29T12:59:31.327Z,5.27
2023-05-29T13:01:58.378Z,4.10
2023-05-29T13:04:26.006Z,3.33
2023-05-29T13:06:52.675Z,3.60
2023-05-29T13:09:19.259Z,4.93
2023-05-29T13:11:46.001Z,4.00
2023-05-29T13:14:12.768Z,4.23
2023-05-29T13:16:39.586Z,4.27
2023-05-29T13:19:07.485Z,3.30
2023-05-29T13:21:35.166Z,4.10
2023-05-29T13:24:02.072Z,5.10
2023-05-29T13:26:29.696Z,4.60
2023-05-29T13:28:59.629Z,4.00
2023-05-29T13:31:32.162Z,4.30
2023-05-29T13:34:03.579Z,4.17
2023-05-29T13:36:46.948Z,3.63
2023-05-29T13:39:14.410Z,4.20
2023-05-29T13:41:45.893Z,3.30
2023-05-29T13:44:14.720Z,3.20
2023-05-29T13:46:41.379Z,4.07
2023-05-29T13:49:10.988Z,3.27
2023-05-29T13:51:37.904Z,4.93
2023-05-29T13:54:05.470Z,4.43
2023-05-29T13:56:32.162Z,5.60
2023-05-29T13:59:04.922Z,4.23
2023-05-29T14:01:32.034Z,4.63
2023-05-29T14:03:58.783Z,3.80
2023-05-29T14:06:25.454Z,3.50
2023-05-29T14:08:52.327Z,4.60
2023-05-29T14:11:18.876Z,4.77
2023-05-29T14:13:45.570Z,3.73
2023-05-29T14:16:12.312Z,4.00
2023-05-29T14:18:39.697Z,4.20
2023-05-29T14:21:06.489Z,3.63
2023-05-29T14:23:33.087Z,3.50
2023-05-29T14:25:59.816Z,3.80
2023-05-29T14:28:26.621Z,4.70
2023-05-29T14:30:53.264Z,3.50
2023-05-29T14:33:20.115Z,3.50
2023-05-29T14:35:46.769Z,3.63
2023-05-29T14:38:13.359Z,4.00
2023-05-29T14:40:40.135Z,4.87
2023-05-29T14:43:07.148Z,3.70
2023-05-29T14:45:33.929Z,3.60
2023-05-29T14:48:02.074Z,3.23
2023-05-29T14:50:29.094Z,4.50
2023-05-29T14:52:56.058Z,4.80
2023-05-29T14:55:22.629Z,3.57
2023-05-29T14:57:49.332Z,4.50
2023-05-29T15:00:18.103Z,4.73
2023-05-29T15:02:45.128Z,4.40
2023-05-29T15:05:12.388Z,4.07
2023-05-29T15:07:38.971Z,4.30
2023-05-29T15:10:05.884Z,3.70
2023-05-29T15:12:33.590Z,4.27
2023-05-29T15:15:00.166Z,3.70
2023-05-29T15:17:26.833Z,4.47
2023-05-29T15:19:53.746Z,3.53
2023-05-29T15:22:20.365Z,4.13
2023-05-29T15:24:47.138Z,3.50
2023-05-29T15:27:13.904Z,4.13
2023-05-29T15:29:42.563Z,3.43
2023-05-29T15:32:09.732Z,3.50
2023-05-29T15:34:37.230Z,3.17
2023-05-29T15:37:04.641Z,3.53
2023-05-29T15:39:31.302Z,3.73
2023-05-29T15:41:58.017Z,3.40
2023-05-29T15:44:31.425Z,3.97
2023-05-29T15:46:58.136Z,4.53
2023-05-29T15:49:24.803Z,3.87
2023-05-29T15:51:51.638Z,3.53
2023-05-29T15:54:18.208Z,2.80
2023-05-29T15:56:44.948Z,3.63
2023-05-29T15:59:11.569Z,3.83
2023-05-29T16:01:38.259Z,3.80
2023-05-29T16:04:05.187Z,3.93
2023-05-29T16:06:33.424Z,3.97
2023-05-29T16:09:00.689Z,3.33
2023-05-29T16:11:28.264Z,3.70
2023-05-29T16:13:55.110Z,3.37
2023-05-29T16:16:21.998Z,4.63
2023-05-29T16:18:49.162Z,3.43
2023-05-29T16:21:15.756Z,3.67
2023-05-29T16:23:42.373Z,3.20
2023-05-29T16:26:08.956Z,3.70
2023-05-29T16:28:35.510Z,3.50
2023-05-29T16:31:02.057Z,2.80
2023-05-29T16:33:28.706Z,3.57
2023-05-29T16:35:55.860Z,3.40
2023-05-29T16:38:22.707Z,4.03
2023-05-29T16:40:49.292Z,3.60
2023-05-29T16:43:15.876Z,4.23
2023-05-29T16:45:42.823Z,2.73
2023-05-29T16:48:09.443Z,4.33
2023-05-29T16:50:36.443Z,2.53
2023-05-29T16:53:04.071Z,3.27
2023-05-29T16:55:30.985Z,3.67
2023-05-29T16:57:57.588Z,3.83
2023-05-29T17:00:25.410Z,2.80
2023-05-29T17:02:52.432Z,3.17
2023-05-29T17:05:19.066Z,4.20
2023-05-29T17:07:46.099Z,3.60
2023-05-29T17:10:13.362Z,3.73
2023-05-29T17:12:40.201Z,3.73
2023-05-29T17:15:07.743Z,3.43
2023-05-29T17:17:34.547Z,3.47
2023-05-29T17:20:01.473Z,3.90
2023-05-29T17:22:28.920Z,3.00
2023-05-29T17:24:55.652Z,3.40
2023-05-29T17:27:22.303Z,3.30
2023-05-29T17:29:48.993Z,3.10
2023-05-29T17:32:15.609Z,3.53
2023-05-29T17:34:42.266Z,3.10
2023-05-29T17:37:08.953Z,2.60
2023-05-29T17:39:35.497Z,2.90
2023-05-29T17:42:02.941Z,3.20
2023-05-29T17:44:29.864Z,3.00
2023-05-29T17:46:56.546Z,3.20
2023-05-29T17:49:23.374Z,3.70
2023-05-29T17:51:49.930Z,3.27
2023-05-29T17:54:16.523Z,3.00
2023-05-29T17:56:43.165Z,3.57
2023-05-29T17:59:10.421Z,4.17
2023-05-29T18:01:37.080Z,3.67
2023-05-29T18:04:04.352Z,4.37
2023-05-29T18:06:32.285Z,3.20
2023-05-29T18:08:58.960Z,3.63
2023-05-29T18:11:26.856Z,3.50
2023-05-29T18:13:53.483Z,2.87
2023-05-29T18:16:20.612Z,2.77
2023-05-29T18:18:47.249Z,3.40
2023-05-29T18:21:14.106Z,2.50
2023-05-29T18:23:42.297Z,3.43
2023-05-29T18:26:09.027Z,3.17
2023-05-29T18:28:38.855Z,2.90
2023-05-29T18:31:05.591Z,3.23
2023-05-29T18:33:34.900Z,3.37
2023-05-29T18:36:01.807Z,2.83
2023-05-29T18:38:28.428Z,2.77
2023-05-29T18:40:55.042Z,3.27
2023-05-29T18:43:24.620Z,3.33
2023-05-29T18:45:51.329Z,3.97
2023-05-29T18:48:17.951Z,3.03
2023-05-29T18:50:44.537Z,4.00
2023-05-29T18:53:11.489Z,3.57
2023-05-29T18:55:37.991Z,3.57
2023-05-29T18:58:05.452Z,4.13
2023-05-29T19:00:33.950Z,3.80
2023-05-29T19:03:00.948Z,3.20
2023-05-29T19:05:27.686Z,3.23
2023-05-29T19:07:54.991Z,2.97
2023-05-29T19:10:21.863Z,4.27
2023-05-29T19:12:48.470Z,3.00
2023-05-29T19:15:15.456Z,4.03
2023-05-29T19:17:42.750Z,3.53
2023-05-29T19:20:09.997Z,3.73
2023-05-29T19:22:36.905Z,4.07
2023-05-29T19:25:03.688Z,3.43
2023-05-29T19:27:30.595Z,2.97
2023-05-29T19:29:57.291Z,3.43
2023-05-29T19:32:24.502Z,3.87
2023-05-29T19:34:54.227Z,3.80
2023-05-29T19:37:21.170Z,3.60
2023-05-29T19:39:53.030Z,4.30
2023-05-29T19:42:22.288Z,3.37
2023-05-29T19:44:49.387Z,2.93
2023-05-29T19:47:16.033Z,3.07
2023-05-29T19:49:43.378Z,3.90
2023-05-29T19:52:10.428Z,3.73
2023-05-29T19:54:38.162Z,4.13
2023-05-29T19:57:05.440Z,3.40
2023-05-29T19:59:32.171Z,4.17
2023-05-29T20:01:59.753Z,3.30
2023-05-29T20:04:28.488Z,3.73
2023-05-29T20:06:55.154Z,4.13
2023-05-29T20:09:21.866Z,3.70
2023-05-29T20:11:48.504Z,4.60
2023-05-29T20:14:15.100Z,3.87
2023-05-29T20:16:41.856Z,4.20
2023-05-29T20:19:08.624Z,4.83
2023-05-29T20:21:35.229Z,3.50
2023-05-29T20:24:02.232Z,5.23
2023-05-29T20:26:28.815Z,5.40
2023-05-29T20:28:55.592Z,3.90
2023-05-29T20:31:24.038Z,4.40
2023-05-29T20:33:51.671Z,3.40
2023-05-29T20:36:20.486Z,3.00
2023-05-29T20:38:47.463Z,3.17
2023-05-29T20:41:14.317Z,3.73
2023-05-29T20:43:41.192Z,3.17
2023-05-29T20:46:08.661Z,3.73
2023-05-29T20:48:35.777Z,4.30
2023-05-29T20:51:04.716Z,4.03
2023-05-29T20:53:38.768Z,3.67
2023-05-29T20:56:05.509Z,4.20
2023-05-29T20:58:32.608Z,3.70
2023-05-29T21:01:00.314Z,2.93
2023-05-29T21:03:26.987Z,4.00
2023-05-29T21:05:53.907Z,3.20
2023-05-29T21:08:21.918Z,3.90
2023-05-29T21:10:48.548Z,4.13
2023-05-29T21:13:22.043Z,3.90
2023-05-29T21:15:50.201Z,3.93
2023-05-29T21:18:17.505Z,3.93
2023-05-29T21:20:44.178Z,2.90
2023-05-29T21:23:11.039Z,3.00
2023-05-29T21:25:37.637Z,4.27
2023-05-29T21:28:04.367Z,3.33
2023-05-29T21:30:31.001Z,3.63
2023-05-29T21:32:57.669Z,2.57
2023-05-29T21:35:24.319Z,4.20
2023-05-29T21:37:51.589Z,3.90
2023-05-29T21:40:20.344Z,3.20
2023-05-29T21:42:47.839Z,3.63
2023-05-29T21:45:14.790Z,3.33
2023-05-29T21:47:41.564Z,4.17
2023-05-29T21:50:08.793Z,3.00
2023-05-29T21:52:35.820Z,2.83
2023-05-29T21:55:02.526Z,3.97
2023-05-29T21:57:29.337Z,3.90
2023-05-29T21:59:56.568Z,4.30
2023-05-29T22:02:23.176Z,3.60
2023-05-29T22:04:49.922Z,2.93
2023-05-29T22:07:16.625Z,3.00
2023-05-29T22:09:43.340Z,3.23
2023-05-29T22:12:10.472Z,3.40
2023-05-29T22:14:37.230Z,3.80
2023-05-29T22:17:04.589Z,3.00
2023-05-29T22:19:34.812Z,3.03
2023-05-29T22:22:01.558Z,2.47
2023-05-29T22:24:30.032Z,3.23
2023-05-29T22:26:56.808Z,2.97
2023-05-29T22:29:27.319Z,4.03
2023-05-29T22:31:54.530Z,4.20
2023-05-29T22:34:23.630Z,3.47
2023-05-29T22:36:51.971Z,3.37
2023-05-29T22:39:20.033Z,2.97
2023-05-29T22:41:47.332Z,2.90
2023-05-29T22:44:14.136Z,3.60
2023-05-29T22:46:41.122Z,3.80
2023-05-29T22:49:08.751Z,4.80
2023-05-29T22:51:36.010Z,3.43
2023-05-29T22:54:04.090Z,2.80
2023-05-29T22:56:30.911Z,3.20
2023-05-29T22:58:57.578Z,2.67
2023-05-29T23:01:26.405Z,3.13
2023-05-29T23:03:53.240Z,2.90
2023-05-29T23:06:20.700Z,4.33
2023-05-29T23:08:49.969Z,4.37
2023-05-29T23:11:19.638Z,3.07
2023-05-29T23:13:46.268Z,4.27
2023-05-29T23:16:13.435Z,5.50
2023-05-29T23:18:40.222Z,4.83
2023-05-29T23:21:07.590Z,4.27
2023-05-29T23:23:34.065Z,3.40
2023-05-29T23:26:00.726Z,3.50
2023-05-29T23:28:27.667Z,3.40
2023-05-29T23:30:54.275Z,4.63
2023-05-29T23:33:22.142Z,3.17
2023-05-29T23:35:48.911Z,3.40
2023-05-29T23:38:15.623Z,3.70
2023-05-29T23:40:42.491Z,3.90
2023-05-29T23:43:09.219Z,3.90
2023-05-29T23:45:38.507Z,3.73
2023-05-29T23:48:05.527Z,3.50
2023-05-29T23:50:32.155Z,3.47
2023-05-29T23:53:00.022Z,3.43
2023-05-29T23:55:27.057Z,3.33
2023-05-29T23:57:53.608Z,4.90
